Time;durP1;ratioP1;P1;durP2;ratioP2;P2;SDS_P1;SDS_P2;PMS_P1;PMS_P2;Temp;Humidity;BMP_temperature;BMP_pressure;BME280_temperature;BME280_humidity;BME280_pressure;Samples;Min_cycle;Max_cycle;Signal;HPM_P1;HPM_P2
2023/04/10 00:01:47;;;;;;;;;15.33;14.33;;;;;13.80;87.36;101434.50;4989774;28;45433;-73
2023/04/10 00:04:14;;;;;;;;;17.33;14.33;;;;;13.78;87.59;101431.97;4980209;28;45718;-73
2023/04/10 00:06:40;;;;;;;;;14.00;11.00;;;;;13.76;87.58;101415.63;4991238;28;45937;-73
2023/04/10 00:09:06;;;;;;;;;11.67;11.67;;;;;13.77;87.07;101421.97;5006097;28;45467;-73
2023/04/10 00:11:32;;;;;;;;;13.67;13.67;;;;;13.77;87.58;101424.75;5003909;28;46914;-73
2023/04/10 00:13:57;;;;;;;;;15.00;13.33;;;;;13.73;87.25;101417.97;4985487;28;46440;-72
2023/04/10 00:16:23;;;;;;;;;11.67;10.00;;;;;13.73;87.01;101413.31;5009657;28;45918;-72
2023/04/10 00:18:48;;;;;;;;;14.67;13.00;;;;;13.76;87.27;101412.88;4985840;28;46081;-73
2023/04/10 00:21:14;;;;;;;;;12.67;12.33;;;;;13.74;86.38;101411.38;4993800;28;45911;-74
2023/04/10 00:23:39;;;;;;;;;13.67;12.67;;;;;13.64;86.39;101387.03;4989240;28;45741;-73
2023/04/10 00:26:05;;;;;;;;;11.00;11.00;;;;;13.77;87.02;101409.06;4991398;28;48205;-74
2023/04/10 00:28:30;;;;;;;;;12.00;9.33;;;;;13.74;86.52;101401.22;4988204;28;45643;-73
2023/04/10 00:30:55;;;;;;;;;14.67;13.33;;;;;13.79;86.77;101403.34;4992146;28;45421;-73
2023/04/10 00:33:21;;;;;;;;;15.00;14.00;;;;;13.78;87.34;101399.72;4978381;28;45419;-75
2023/04/10 00:35:46;;;;;;;;;10.33;8.33;;;;;13.76;86.93;101390.81;4995327;28;46384;-75
2023/04/10 00:38:12;;;;;;;;;9.00;8.33;;;;;13.81;86.07;101397.59;4993412;28;45606;-74
2023/04/10 00:40:37;;;;;;;;;9.33;9.33;;;;;13.77;86.56;101386.13;4990149;28;45364;-76
2023/04/10 00:43:03;;;;;;;;;14.33;10.33;;;;;13.82;86.15;101383.59;4989080;28;46050;-73
2023/04/10 00:45:28;;;;;;;;;11.33;9.33;;;;;13.80;86.18;101382.94;4976178;28;46513;-73
2023/04/10 00:47:54;;;;;;;;;12.67;11.33;;;;;13.78;86.23;101372.16;4973897;28;45978;-73
2023/04/10 00:50:21;;;;;;;;;12.67;11.67;;;;;13.80;86.26;101373.84;4990055;28;45796;-74
2023/04/10 00:52:48;;;;;;;;;12.67;11.67;;;;;13.79;86.25;101370.25;4994325;28;45881;-74
2023/04/10 00:55:14;;;;;;;;;11.33;9.33;;;;;13.78;86.49;101363.88;4998741;28;46300;-75
2023/04/10 00:57:45;;;;;;;;;12.33;11.33;;;;;13.79;86.47;101373.00;4974133;28;45578;-74
2023/04/10 01:00:13;;;;;;;;;16.33;13.33;;;;;13.79;85.87;101367.50;5003052;28;45564;-74
2023/04/10 01:02:38;;;;;;;;;14.33;14.33;;;;;13.73;85.83;101349.06;5003001;28;47299;-74
2023/04/10 01:05:05;;;;;;;;;11.67;11.33;;;;;13.70;86.60;101355.84;4999669;28;46585;-76
2023/04/10 01:07:57;;;;;;;;;12.00;11.33;;;;;13.73;86.37;101355.41;4989666;28;45508;-73
2023/04/10 01:10:41;;;;;;;;;13.33;13.33;;;;;13.67;86.33;101352.69;4990910;28;45402;-74
2023/04/10 01:13:26;;;;;;;;;14.33;12.67;;;;;13.69;86.50;101359.66;4994658;28;45738;-73
2023/04/10 01:16:06;;;;;;;;;15.00;12.33;;;;;13.70;87.08;101355.00;4990148;28;46070;-73
2023/04/10 01:18:38;;;;;;;;;18.67;13.33;;;;;13.70;86.52;101352.25;4975648;28;45651;-74
2023/04/10 01:21:08;;;;;;;;;8.00;7.00;;;;;13.68;86.54;101351.59;4991115;28;45902;-74
2023/04/10 01:23:41;;;;;;;;;13.00;11.33;;;;;13.69;86.54;101350.53;4990136;28;45850;-73
2023/04/10 01:26:13;;;;;;;;;14.67;11.33;;;;;13.69;86.63;101358.81;4990169;28;47311;-73
2023/04/10 01:29:00;;;;;;;;;9.67;8.67;;;;;13.70;85.94;101360.53;4987618;28;45755;-74
2023/04/10 01:31:36;;;;;;;;;12.67;10.67;;;;;13.65;86.29;101349.28;4994618;28;45390;-74
2023/04/10 01:34:09;;;;;;;;;13.33;11.33;;;;;13.66;86.77;101342.72;4993214;28;45446;-73
2023/04/10 01:36:47;;;;;;;;;15.00;12.33;;;;;13.65;87.10;101344.59;4991220;28;45910;-74
2023/04/10 01:39:15;;;;;;;;;11.67;11.00;;;;;13.64;86.77;101342.06;4997439;28;45443;-74
2023/04/10 01:41:44;;;;;;;;;13.67;13.33;;;;;13.59;86.43;101332.56;4979972;28;45487;-73
2023/04/10 01:44:13;;;;;;;;;15.00;14.00;;;;;13.62;87.01;101338.69;4992064;28;46296;-73
2023/04/10 01:46:39;;;;;;;;;15.67;14.00;;;;;13.65;86.93;101338.25;4991814;28;46136;-74
2023/04/10 01:49:05;;;;;;;;;13.33;10.67;;;;;13.62;87.18;101324.91;4992900;28;45466;-73
2023/04/10 01:51:33;;;;;;;;;14.00;11.67;;;;;13.66;86.97;101329.75;5010881;28;45465;-74
2023/04/10 01:54:00;;;;;;;;;12.00;10.33;;;;;13.59;86.86;101329.78;4999040;28;45420;-73
2023/04/10 01:56:27;;;;;;;;;7.00;7.00;;;;;13.65;87.03;101329.97;4991145;28;45742;-73
2023/04/10 01:58:53;;;;;;;;;11.00;11.00;;;;;13.64;87.20;101331.03;4977413;28;45543;-73
2023/04/10 02:01:20;;;;;;;;;12.00;10.00;;;;;13.65;86.90;101327.22;4997473;28;45702;-73
2023/04/10 02:03:46;;;;;;;;;12.67;12.67;;;;;13.62;87.50;101328.50;4989176;28;45432;-74
2023/04/10 02:06:11;;;;;;;;;13.33;12.33;;;;;13.60;87.33;101314.94;4990659;28;48252;-72
2023/04/10 02:08:42;;;;;;;;;13.00;12.00;;;;;13.56;87.27;101324.72;4990493;28;45471;-76
2023/04/10 02:11:29;;;;;;;;;14.00;14.00;;;;;13.58;87.35;101314.31;5003334;28;45782;-75
2023/04/10 02:14:00;;;;;;;;;10.67;10.67;;;;;13.56;87.25;101321.94;4999862;28;45861;-74
2023/04/10 02:16:28;;;;;;;;;13.00;13.00;;;;;13.54;87.54;101320.47;4997982;28;45705;-73
2023/04/10 02:18:54;;;;;;;;;12.33;11.00;;;;;13.51;87.74;101313.47;4993780;28;46129;-75
2023/04/10 02:21:20;;;;;;;;;14.00;12.67;;;;;13.52;87.66;101315.16;4976917;28;45500;-73
2023/04/10 02:23:45;;;;;;;;;14.00;11.67;;;;;13.50;87.52;101309.03;4989939;28;45779;-72
2023/04/10 02:26:11;;;;;;;;;14.33;13.33;;;;;13.50;87.55;101306.28;4988997;28;46979;-73
2023/04/10 02:28:38;;;;;;;;;13.67;11.67;;;;;13.46;87.51;101296.75;4991202;28;45520;-71
2023/04/10 02:31:03;;;;;;;;;13.00;10.33;;;;;13.50;87.77;101299.91;4977806;28;45836;-71
2023/04/10 02:33:29;;;;;;;;;10.00;9.67;;;;;13.48;88.03;101300.13;4990837;28;45928;-75
2023/04/10 02:35:54;;;;;;;;;12.67;11.67;;;;;13.49;88.02;101298.19;4970019;28;47871;-72
2023/04/10 02:38:20;;;;;;;;;13.00;11.33;;;;;13.50;87.36;101297.16;4996462;28;45483;-74
2023/04/10 02:40:45;;;;;;;;;14.67;11.00;;;;;13.46;87.33;101291.22;4997717;28;45562;-74
2023/04/10 02:43:11;;;;;;;;;11.00;11.00;;;;;13.33;86.98;101269.19;4989983;28;45966;-73
2023/04/10 02:45:36;;;;;;;;;12.00;8.67;;;;;13.42;87.13;101292.72;4988770;28;45901;-75
2023/04/10 02:48:04;;;;;;;;;12.67;10.00;;;;;13.42;87.53;101295.47;4996262;28;45518;-72
2023/04/10 02:50:31;;;;;;;;;11.67;10.67;;;;;13.40;87.62;101292.09;4996687;28;46015;-75
2023/04/10 02:52:56;;;;;;;;;11.67;11.67;;;;;13.34;87.09;101282.78;4968049;28;45670;-72
2023/04/10 02:55:22;;;;;;;;;12.00;9.33;;;;;13.32;87.52;101284.84;4981878;28;47499;-73
2023/04/10 02:57:47;;;;;;;;;11.67;11.67;;;;;13.22;87.09;101279.78;4990519;28;45854;-74
2023/04/10 03:00:13;;;;;;;;;13.00;12.00;;;;;13.22;87.41;101265.19;4996286;28;45520;-73
2023/04/10 03:02:38;;;;;;;;;13.33;12.33;;;;;13.21;87.24;101277.25;4992067;28;45494;-76
2023/04/10 03:05:05;;;;;;;;;14.00;9.67;;;;;13.18;87.43;101274.91;5008820;28;46758;-74
2023/04/10 03:07:31;;;;;;;;;11.00;8.50;;;;;13.15;87.24;101276.19;5002062;28;45851;-75
2023/04/10 03:09:56;;;;;;;;;11.67;10.67;;;;;13.07;87.24;101274.50;4983310;28;45667;-73
2023/04/10 03:12:22;;;;;;;;;12.00;10.67;;;;;13.07;87.59;101270.91;4997887;28;45714;-73
2023/04/10 03:14:47;;;;;;;;;12.00;11.33;;;;;12.99;87.91;101268.34;4998280;28;46538;-72
2023/04/10 03:17:12;;;;;;;;;12.00;10.33;;;;;12.92;88.02;101245.47;4996575;28;45473;-73
2023/04/10 03:19:38;;;;;;;;;11.00;10.00;;;;;13.00;87.70;101264.56;4990240;28;45836;-72
2023/04/10 03:22:03;;;;;;;;;9.33;9.33;;;;;12.92;87.94;101256.50;4997291;28;45931;-73
2023/04/10 03:24:29;;;;;;;;;10.67;9.00;;;;;12.90;88.48;101256.69;4994353;28;45923;-73
2023/04/10 03:26:55;;;;;;;;;12.67;12.33;;;;;12.75;88.35;101229.38;4988258;28;45499;-74
2023/04/10 03:29:21;;;;;;;;;11.67;10.00;;;;;12.85;88.70;101256.50;4999585;28;45933;-74
2023/04/10 03:31:46;;;;;;;;;13.67;9.67;;;;;12.77;88.69;101249.31;4994467;28;45823;-75
2023/04/10 03:34:12;;;;;;;;;10.00;10.00;;;;;12.66;88.78;101238.91;5007335;28;46694;-79
2023/04/10 03:36:37;;;;;;;;;11.67;10.67;;;;;12.69;89.00;101242.09;4990546;28;45429;-76
2023/04/10 03:39:03;;;;;;;;;12.00;10.33;;;;;12.60;89.19;101232.34;5001033;28;45956;-78
2023/04/10 03:41:28;;;;;;;;;11.33;10.00;;;;;12.58;89.42;101233.63;5000818;28;45882;-76
2023/04/10 03:43:56;;;;;;;;;13.00;11.00;;;;;12.67;89.50;101243.38;4989632;28;45819;-76
2023/04/10 03:46:21;;;;;;;;;12.33;11.00;;;;;12.64;89.56;101241.88;5007305;28;45576;-76
2023/04/10 03:48:48;;;;;;;;;9.67;9.67;;;;;12.48;89.46;101210.09;5005061;28;45387;-77
2023/04/10 03:51:14;;;;;;;;;11.00;10.33;;;;;12.64;89.97;101230.88;4997758;28;45523;-78
2023/04/10 03:53:39;;;;;;;;;9.67;9.00;;;;;12.51;90.53;101204.22;4973777;28;46860;-80
2023/04/10 03:56:05;;;;;;;;;9.33;9.33;;;;;12.59;90.28;101221.53;4986548;28;45480;-76
2023/04/10 03:58:31;;;;;;;;;12.00;10.67;;;;;12.61;90.49;101224.97;4999492;28;45879;-78
2023/04/10 04:00:56;;;;;;;;;12.33;9.33;;;;;12.57;90.50;101215.41;5003623;28;45713;-76
2023/04/10 04:03:22;;;;;;;;;12.00;12.00;;;;;12.59;91.37;101221.53;4985279;28;47739;-76
2023/04/10 04:05:47;;;;;;;;;11.00;10.00;;;;;12.59;91.22;101229.81;5002243;28;45670;-76
2023/04/10 04:08:12;;;;;;;;;12.00;9.00;;;;;12.45;91.31;101205.03;4995253;28;45469;-77
2023/04/10 04:10:38;;;;;;;;;12.00;12.00;;;;;12.53;91.80;101220.50;5008514;28;45783;-77
2023/04/10 04:13:04;;;;;;;;;13.00;11.33;;;;;12.51;91.69;101222.59;5010300;28;46304;-76
2023/04/10 04:15:29;;;;;;;;;10.67;9.33;;;;;12.45;92.35;101221.53;4976860;28;45855;-77
2023/04/10 04:17:56;;;;;;;;;14.33;11.33;;;;;12.49;92.38;101236.56;4980329;28;45524;-76
2023/04/10 04:20:21;;;;;;;;;14.50;11.00;;;;;12.43;92.90;101237.41;4979413;28;46302;-78
2023/04/10 04:22:47;;;;;;;;;13.00;10.00;;;;;12.46;93.28;101236.16;5005262;28;45844;-77
2023/04/10 04:25:12;;;;;;;;;13.00;12.33;;;;;12.46;92.97;101236.16;5008716;28;45948;-77
2023/04/10 04:27:38;;;;;;;;;15.00;11.67;;;;;12.30;92.70;101209.88;5001441;28;45723;-76
2023/04/10 04:30:05;;;;;;;;;11.00;10.33;;;;;12.43;93.29;101234.66;5006927;28;45708;-75
2023/04/10 04:32:30;;;;;;;;;12.33;10.33;;;;;12.46;93.42;101241.66;4993108;28;46223;-75
2023/04/10 04:34:55;;;;;;;;;11.33;10.67;;;;;12.44;93.59;101236.38;5004021;28;45820;-75
2023/04/10 04:37:21;;;;;;;;;15.00;11.00;;;;;12.28;93.70;101209.25;5000207;28;45517;-75
2023/04/10 04:39:46;;;;;;;;;11.67;11.00;;;;;12.40;93.97;101231.50;4988804;28;45630;-81
2023/04/10 04:42:12;;;;;;;;;10.67;10.67;;;;;12.31;93.94;101220.69;4997373;28;45401;-79
2023/04/10 04:44:37;;;;;;;;;9.67;9.00;;;;;12.44;94.20;101244.63;4982269;28;45390;-80
2023/04/10 04:47:02;;;;;;;;;12.33;11.33;;;;;12.17;94.11;101206.06;4993662;28;45556;-78
2023/04/10 04:49:28;;;;;;;;;12.67;11.67;;;;;12.28;94.51;101223.84;4979827;28;45605;-74
2023/04/10 04:51:53;;;;;;;;;11.00;9.67;;;;;12.44;94.92;101249.25;5001685;28;46793;-74
2023/04/10 04:54:19;;;;;;;;;12.00;9.33;;;;;12.31;94.87;101228.94;4997331;28;45475;-76
2023/04/10 04:56:44;;;;;;;;;12.33;10.33;;;;;12.43;94.49;101248.41;5006436;28;45750;-75
2023/04/10 04:59:09;;;;;;;;;13.33;10.33;;;;;12.42;94.50;101238.47;4986797;28;45605;-74
2023/04/10 05:01:35;;;;;;;;;10.67;9.67;;;;;12.48;94.83;101245.88;4992442;28;45476;-73
2023/04/10 05:04:00;;;;;;;;;9.00;9.00;;;;;12.57;95.11;101249.28;5004303;28;45433;-75
2023/04/10 05:06:25;;;;;;;;;12.67;12.67;;;;;12.57;94.80;101238.28;5009408;28;45329;-74
2023/04/10 05:08:51;;;;;;;;;11.67;9.67;;;;;12.67;94.89;101243.38;5009606;28;45568;-76
2023/04/10 05:11:17;;;;;;;;;13.67;12.67;;;;;12.68;95.28;101242.31;5004201;28;45853;-75
2023/04/10 05:13:42;;;;;;;;;10.00;10.00;;;;;12.71;94.52;101245.50;4992334;28;45385;-74
2023/04/10 05:16:08;;;;;;;;;13.33;12.33;;;;;12.71;94.89;101251.00;4999792;28;45874;-74
2023/04/10 05:18:34;;;;;;;;;9.67;9.67;;;;;12.76;95.03;101250.34;4992068;28;45938;-74
2023/04/10 05:21:00;;;;;;;;;10.33;10.00;;;;;12.78;94.73;101239.97;5005695;28;45849;-74
2023/04/10 05:23:25;;;;;;;;;10.67;10.67;;;;;12.70;95.26;101231.94;4993817;28;45691;-78
2023/04/10 05:25:51;;;;;;;;;11.00;11.00;;;;;12.78;94.65;101237.22;5000404;28;45601;-74
2023/04/10 05:28:16;;;;;;;;;13.33;11.00;;;;;12.98;94.73;101262.00;5001502;28;45446;-75
2023/04/10 05:30:42;;;;;;;;;11.33;10.33;;;;;13.01;94.75;101258.00;4997267;28;46414;-79
2023/04/10 05:33:07;;;;;;;;;12.67;10.67;;;;;13.05;94.51;101256.50;4974386;28;45785;-75
2023/04/10 05:35:32;;;;;;;;;12.33;11.33;;;;;13.01;94.58;101255.25;4991643;28;45555;-76
2023/04/10 05:37:59;;;;;;;;;11.33;11.33;;;;;13.10;95.19;101259.47;4990863;28;45566;-75
2023/04/10 05:40:25;;;;;;;;;14.67;11.67;;;;;13.15;94.79;101267.91;4992410;28;45539;-75
2023/04/10 05:42:50;;;;;;;;;14.00;9.67;;;;;13.12;94.25;101249.06;4991991;28;45605;-74
2023/04/10 05:45:17;;;;;;;;;12.00;11.00;;;;;13.16;95.11;101246.72;4994910;28;45721;-75
2023/04/10 05:47:42;;;;;;;;;13.00;12.00;;;;;13.20;95.45;101240.59;4988036;28;45356;-71
2023/04/10 05:50:08;;;;;;;;;14.67;14.00;;;;;13.21;94.68;101244.19;4988232;28;47321;-73
2023/04/10 05:52:34;;;;;;;;;13.00;9.67;;;;;13.29;94.49;101251.38;4989328;28;45566;-74
2023/04/10 05:54:59;;;;;;;;;14.67;11.67;;;;;13.29;94.28;101246.72;4990062;28;45520;-73
2023/04/10 05:57:25;;;;;;;;;13.33;11.33;;;;;13.32;94.24;101264.72;4986159;28;45464;-74
2023/04/10 05:59:50;;;;;;;;;14.33;12.00;;;;;13.35;94.02;101267.06;4990557;28;46577;-73
2023/04/10 06:02:16;;;;;;;;;11.67;11.67;;;;;13.41;94.35;101253.31;4989632;28;45888;-72
2023/04/10 06:04:41;;;;;;;;;13.33;13.33;;;;;13.47;94.57;101254.34;4984513;28;46013;-72
2023/04/10 06:07:06;;;;;;;;;11.33;10.00;;;;;13.50;93.94;101247.56;4990508;28;45859;-74
2023/04/10 06:09:32;;;;;;;;;12.67;12.00;;;;;13.57;93.38;101245.63;4989307;28;45791;-74
2023/04/10 06:11:57;;;;;;;;;14.33;11.67;;;;;13.63;94.01;101255.78;4988594;28;45587;-75
2023/04/10 06:14:23;;;;;;;;;12.67;8.33;;;;;13.64;93.57;101248.34;4994965;28;45723;-74
2023/04/10 06:16:48;;;;;;;;;13.00;11.67;;;;;13.70;93.68;101247.50;4987576;28;45611;-75
2023/04/10 06:19:13;;;;;;;;;12.33;12.00;;;;;13.77;93.18;101251.94;4983242;28;47169;-74
2023/04/10 06:21:39;;;;;;;;;15.00;14.00;;;;;13.93;93.13;101256.09;5001812;28;45344;-76
2023/04/10 06:24:05;;;;;;;;;21.67;16.33;;;;;14.07;93.52;101261.53;5002585;28;45542;-76
2023/04/10 06:26:30;;;;;;;;;17.00;12.00;;;;;14.07;92.46;101248.63;5003199;28;45956;-73
2023/04/10 06:28:56;;;;;;;;;13.00;12.33;;;;;14.23;91.93;101261.03;4996814;28;46139;-73
2023/04/10 06:31:21;;;;;;;;;8.00;8.00;;;;;14.28;92.32;101254.84;5001899;28;45664;-73
2023/04/10 06:33:48;;;;;;;;;14.00;12.67;;;;;14.37;91.70;101258.19;4996491;28;45783;-74
2023/04/10 06:36:13;;;;;;;;;12.33;8.00;;;;;14.47;91.62;101264.09;4999687;28;45531;-76
2023/04/10 06:38:38;;;;;;;;;13.67;12.00;;;;;14.55;91.39;101266.59;4996318;28;45895;-75
2023/04/10 06:41:05;;;;;;;;;10.67;10.67;;;;;14.60;90.91;101254.88;4992064;28;45902;-76
2023/04/10 06:43:34;;;;;;;;;12.00;12.00;;;;;14.69;91.16;101258.25;4999495;28;45771;-75
2023/04/10 06:46:02;;;;;;;;;9.67;9.67;;;;;14.73;90.59;101246.53;5009497;28;45911;-76
2023/04/10 06:48:27;;;;;;;;;15.00;11.67;;;;;14.79;90.48;101242.00;5006013;28;46053;-75
2023/04/10 06:50:53;;;;;;;;;14.67;13.00;;;;;14.86;90.12;101239.19;5010927;28;47179;-74
2023/04/10 06:53:18;;;;;;;;;12.67;11.00;;;;;14.99;89.89;101242.69;5008524;28;46082;-76
2023/04/10 06:55:43;;;;;;;;;13.33;12.00;;;;;15.07;89.59;101237.94;5004279;28;45823;-76
2023/04/10 06:58:09;;;;;;;;;12.33;12.33;;;;;14.94;89.01;101219.56;5000576;28;46779;-74
2023/04/10 07:00:34;;;;;;;;;16.00;13.67;;;;;15.11;89.11;101230.91;5006119;28;45515;-75
2023/04/10 07:02:59;;;;;;;;;14.33;13.00;;;;;15.18;88.64;101227.00;4998354;28;45199;-75
2023/04/10 07:05:25;;;;;;;;;13.67;9.33;;;;;15.21;88.82;101225.72;5010072;28;46003;-75
2023/04/10 07:07:50;;;;;;;;;6.33;6.33;;;;;15.28;88.11;101218.16;5019337;28;45502;-74
2023/04/10 07:10:16;;;;;;;;;14.33;11.67;;;;;15.41;88.40;101216.38;5019758;28;45916;-75
2023/04/10 07:12:42;;;;;;;;;15.33;13.00;;;;;15.49;88.12;101200.31;4994528;28;45845;-77
2023/04/10 07:15:08;;;;;;;;;8.33;8.33;;;;;15.46;87.17;101186.94;4999410;28;45979;-75
2023/04/10 07:17:33;;;;;;;;;14.00;12.50;;;;;15.61;86.53;101199.53;4986850;28;47277;-76
2023/04/10 07:19:59;;;;;;;;;11.00;11.00;;;;;15.70;86.06;101189.84;4979553;28;45801;-76
2023/04/10 07:22:25;;;;;;;;;13.67;10.00;;;;;15.98;85.70;101208.66;5000701;28;45723;-75
2023/04/10 07:24:51;;;;;;;;;11.67;11.67;;;;;16.09;84.70;101197.88;4992006;28;46043;-75
2023/04/10 07:27:16;;;;;;;;;9.67;9.67;;;;;16.16;84.51;101187.56;4996995;28;46216;-76
2023/04/10 07:29:42;;;;;;;;;13.33;13.33;;;;;16.35;84.41;101191.94;4999855;28;46062;-75
2023/04/10 07:32:07;;;;;;;;;11.00;11.00;;;;;16.54;84.42;101183.56;4993229;28;45721;-75
2023/04/10 07:34:32;;;;;;;;;11.00;11.00;;;;;16.72;83.37;101180.72;4996043;28;45780;-75
2023/04/10 07:36:58;;;;;;;;;12.33;10.67;;;;;17.01;82.54;101182.81;4999109;28;46360;-74
2023/04/10 07:39:24;;;;;;;;;12.67;11.67;;;;;17.35;82.07;101192.19;4998559;28;45931;-73
2023/04/10 07:41:51;;;;;;;;;12.67;12.33;;;;;17.57;80.63;101189.56;5006874;28;45495;-73
2023/04/10 07:44:19;;;;;;;;;21.33;16.67;;;;;17.66;80.87;101195.59;5002689;28;45775;-74
2023/04/10 07:46:45;;;;;;;;;12.33;8.67;;;;;17.93;79.82;101211.72;5000642;28;46078;-74
2023/04/10 07:49:11;;;;;;;;;6.67;6.33;;;;;18.08;78.65;101195.34;5001586;28;45922;-74
2023/04/10 07:51:44;;;;;;;;;8.33;8.33;;;;;18.27;78.18;101195.97;4998722;28;45478;-75
2023/04/10 07:54:09;;;;;;;;;9.33;7.67;;;;;18.46;77.06;101193.00;4995512;28;45981;-76
2023/04/10 07:56:35;;;;;;;;;10.67;9.33;;;;;18.70;76.75;101183.41;4991810;28;45961;-73
2023/04/10 07:59:02;;;;;;;;;10.67;9.33;;;;;18.76;75.85;101186.25;5000795;28;45487;-74
2023/04/10 08:01:28;;;;;;;;;13.67;9.67;;;;;18.81;75.52;101187.19;4995843;28;45707;-74
2023/04/10 08:03:54;;;;;;;;;8.00;7.00;;;;;18.67;75.15;101150.56;4998438;28;45592;-76
2023/04/10 08:06:20;;;;;;;;;12.67;10.00;;;;;18.91;74.89;101189.34;5002575;28;45928;-73
2023/04/10 08:08:46;;;;;;;;;7.00;7.00;;;;;19.04;74.64;101205.66;4979455;28;45871;-75
2023/04/10 08:11:28;;;;;;;;;11.67;8.67;;;;;19.11;73.65;101213.81;4996507;28;46763;-75
2023/04/10 08:13:55;;;;;;;;;9.00;9.00;;;;;19.30;73.46;101210.75;5000047;28;45487;-73
2023/04/10 08:16:25;;;;;;;;;8.67;7.00;;;;;19.52;72.58;101206.06;4992098;28;45531;-73
2023/04/10 08:18:53;;;;;;;;;10.00;7.00;;;;;19.61;72.41;101209.25;4997147;28;45614;-75
2023/04/10 08:21:26;;;;;;;;;9.33;9.33;;;;;19.66;72.31;101200.13;4990007;28;45574;-75
2023/04/10 08:23:57;;;;;;;;;13.00;10.67;;;;;19.62;72.04;101199.78;4990459;28;45560;-74
2023/04/10 08:26:23;;;;;;;;;7.33;5.67;;;;;19.51;71.39;101201.59;4973952;28;46687;-73
2023/04/10 08:28:50;;;;;;;;;11.67;8.67;;;;;19.49;71.18;101184.31;4999127;28;45582;-78
2023/04/10 08:31:17;;;;;;;;;9.67;9.67;;;;;19.32;71.39;101183.53;4993782;28;45540;-76
2023/04/10 08:33:43;;;;;;;;;8.33;8.33;;;;;19.18;71.85;101178.34;4991454;28;45724;-75
2023/04/10 08:36:09;;;;;;;;;8.67;8.67;;;;;19.34;71.85;101203.56;4995330;28;45700;-76
2023/04/10 08:38:34;;;;;;;;;9.33;9.33;;;;;19.12;72.21;101187.69;4993444;28;45833;-79
2023/04/10 08:41:00;;;;;;;;;10.00;8.00;;;;;19.20;72.61;101198.38;4981666;28;45826;-72
2023/04/10 08:43:26;;;;;;;;;9.00;9.00;;;;;19.18;72.98;101195.00;4996190;28;45550;-73
2023/04/10 08:45:51;;;;;;;;;9.33;8.33;;;;;19.20;73.29;101205.88;4994215;28;46162;-81
2023/04/10 08:48:21;;;;;;;;;12.67;11.00;;;;;19.20;73.95;101197.53;4992367;28;45914;-80
2023/04/10 08:50:48;;;;;;;;;8.67;7.33;;;;;19.22;74.40;101198.09;4989834;28;45678;-80
2023/04/10 08:53:15;;;;;;;;;14.67;10.67;;;;;19.23;74.84;101200.63;4993127;28;45683;-79
2023/04/10 08:55:41;;;;;;;;;9.67;7.33;;;;;19.29;74.77;101207.13;4991859;28;46175;-79
2023/04/10 08:58:07;;;;;;;;;11.67;8.67;;;;;19.29;75.40;101198.78;4996770;28;45902;-80
2023/04/10 09:00:34;;;;;;;;;10.00;8.67;;;;;19.41;76.19;101205.06;5002146;28;45570;-79
2023/04/10 09:03:03;;;;;;;;;6.67;6.33;;;;;19.58;76.53;101193.03;4995084;28;45916;-78
2023/04/10 09:05:29;;;;;;;;;8.00;6.67;;;;;19.80;76.61;101192.25;5003652;28;45558;-80
2023/04/10 09:07:55;;;;;;;;;11.00;7.33;;;;;19.85;75.16;101187.59;4992867;28;45361;-80
2023/04/10 09:10:20;;;;;;;;;6.00;6.00;;;;;19.98;76.53;101179.91;4980219;28;45865;-78
2023/04/10 09:12:47;;;;;;;;;9.00;8.00;;;;;20.06;75.31;101176.66;4994401;28;45650;-79
2023/04/10 09:15:14;;;;;;;;;7.67;7.67;;;;;20.16;76.73;101182.34;4974922;28;46007;-79
2023/04/10 09:18:01;;;;;;;;;7.33;7.33;;;;;20.34;76.26;101183.91;4975756;28;45713;-78
2023/04/10 09:20:29;;;;;;;;;9.33;6.00;;;;;20.46;76.63;101169.81;4990459;28;45809;-81
2023/04/10 09:22:55;;;;;;;;;10.67;4.67;;;;;20.50;74.50;101173.75;4988256;28;45972;-79
2023/04/10 09:25:32;;;;;;;;;7.00;7.00;;;;;20.40;73.15;101170.88;4991017;28;46056;-77
2023/04/10 09:28:06;;;;;;;;;5.00;5.00;;;;;20.32;74.96;101172.19;4980670;28;45756;-79
2023/04/10 09:30:40;;;;;;;;;6.00;5.00;;;;;20.25;74.36;101158.50;4979982;28;45881;-79
2023/04/10 09:33:26;;;;;;;;;7.67;6.00;;;;;20.22;74.74;101152.59;4971208;28;46016;-79
2023/04/10 09:35:53;;;;;;;;;6.00;6.00;;;;;20.22;74.57;101153.44;4988182;28;46044;-79
2023/04/10 09:38:22;;;;;;;;;4.00;4.00;;;;;20.20;73.37;101124.19;4994988;28;46018;-79
2023/04/10 09:40:48;;;;;;;;;6.33;5.00;;;;;20.36;73.30;101139.06;4993158;28;45507;-80
2023/04/10 09:43:17;;;;;;;;;5.33;5.00;;;;;20.51;72.34;101135.56;4996398;28;46330;-80
2023/04/10 09:45:58;;;;;;;;;5.67;5.00;;;;;20.53;71.73;101134.22;4995603;28;45906;-80
2023/04/10 09:48:28;;;;;;;;;8.33;6.00;;;;;20.37;70.98;101133.22;4999844;28;45500;-79
2023/04/10 09:50:53;;;;;;;;;6.00;6.00;;;;;20.18;71.63;101127.22;5000314;28;45551;-80
2023/04/10 09:53:20;;;;;;;;;6.67;4.67;;;;;20.09;72.10;101120.47;5003358;28;45559;-80
2023/04/10 09:55:47;;;;;;;;;5.33;5.00;;;;;20.10;70.61;101130.47;4993614;28;45847;-80
2023/04/10 09:58:14;;;;;;;;;6.00;6.00;;;;;20.10;71.87;101128.56;4988357;28;45642;-80
2023/04/10 10:00:41;;;;;;;;;5.00;4.00;;;;;20.11;70.96;101121.88;4992891;28;45670;-79
2023/04/10 10:03:12;;;;;;;;;5.67;4.33;;;;;20.13;71.12;101121.59;4995412;28;45803;-80
2023/04/10 10:05:40;;;;;;;;;7.67;5.67;;;;;20.09;70.95;101128.81;4981459;28;45732;-80
2023/04/10 10:08:08;;;;;;;;;6.00;4.33;;;;;19.98;70.17;101116.72;4985476;28;45850;-80
2023/04/10 10:10:45;;;;;;;;;3.67;3.67;;;;;19.89;70.65;101124.69;4986618;28;45679;-83
2023/04/10 10:13:18;;;;;;;;;4.33;4.33;;;;;19.74;68.84;101114.22;4966380;28;46039;-78
2023/04/10 10:15:53;;;;;;;;;3.00;3.00;;;;;19.65;69.26;101112.16;4989142;28;45563;-82
2023/04/10 10:18:43;;;;;;;;;4.00;4.00;;;;;19.56;68.75;101111.78;4985642;28;45655;-82
2023/04/10 10:21:09;;;;;;;;;5.00;4.67;;;;;19.53;69.81;101117.88;4995730;28;45536;-81
2023/04/10 10:23:36;;;;;;;;;3.67;3.67;;;;;19.43;68.79;101106.63;4991461;28;45811;-84
2023/04/10 10:26:05;;;;;;;;;5.00;5.00;;;;;19.26;69.05;101095.56;4996050;28;46258;-81
2023/04/10 10:28:32;;;;;;;;;4.00;4.00;;;;;19.07;68.11;101093.09;4991912;28;45878;-81
2023/04/10 10:30:59;;;;;;;;;4.00;3.00;;;;;19.07;69.58;101101.44;4975774;28;45570;-81
2023/04/10 10:33:26;;;;;;;;;4.33;4.33;;;;;18.94;67.97;101085.16;4975893;28;46210;-80
2023/04/10 10:35:52;;;;;;;;;4.33;4.33;;;;;18.94;68.33;101093.50;4993218;28;45829;-81
2023/04/10 10:38:18;;;;;;;;;3.00;3.00;;;;;18.94;67.52;101099.88;4988546;28;45504;-79
2023/04/10 10:41:17;;;;;;;;;4.00;4.00;;;;;18.94;66.68;101079.59;4974504;28;45549;-80
2023/04/10 10:43:51;;;;;;;;;6.33;2.67;;;;;19.07;67.16;101081.97;4980493;28;45463;-79
2023/04/10 10:46:24;;;;;;;;;0.00;0.00;;;;;19.15;66.61;101073.19;4995209;28;45481;-82
2023/04/10 10:48:58;;;;;;;;;2.67;2.00;;;;;19.02;64.92;101062.44;4990524;28;45758;-80
2023/04/10 10:51:41;;;;;;;;;5.00;3.33;;;;;19.10;66.21;101075.91;4989280;28;45851;-79
2023/04/10 10:54:32;;;;;;;;;6.67;4.33;;;;;19.39;65.72;101072.94;4984511;28;46203;-81
2023/04/10 10:56:58;;;;;;;;;4.00;3.00;;;;;19.50;66.19;101066.38;4986891;28;46430;-80
2023/04/10 10:59:47;;;;;;;;;5.00;3.00;;;;;19.57;66.28;101080.09;4994494;28;45451;-81
2023/04/10 11:02:15;;;;;;;;;4.00;3.67;;;;;19.64;65.97;101077.09;4978099;28;45787;-79
2023/04/10 11:04:44;;;;;;;;;2.00;2.00;;;;;19.68;65.96;101083.81;4988971;28;45842;-78
2023/04/10 11:07:10;;;;;;;;;6.00;3.00;;;;;19.59;64.20;101083.44;4977228;28;46124;-80
2023/04/10 11:09:48;;;;;;;;;4.00;4.00;;;;;19.53;65.02;101063.06;4981287;28;46010;-80
2023/04/10 11:12:15;;;;;;;;;2.00;2.00;;;;;19.51;66.22;101065.28;4996218;28;45978;-78
2023/04/10 11:14:43;;;;;;;;;3.67;3.67;;;;;19.61;67.46;101074.84;4989744;28;45855;-79
2023/04/10 11:17:10;;;;;;;;;5.67;4.33;;;;;19.70;67.07;101059.34;4989780;28;45581;-81